Time;durP1;ratioP1;P1;durP2;ratioP2;P2;SDS_P1;SDS_P2;PMS_P1;PMS_P2;Temp;Humidity;BMP_temperature;BMP_pressure;BME280_temperature;BME280_humidity;BME280_pressure;Samples;Min_cycle;Max_cycle;Signal;HPM_P1;HPM_P2
2023/08/09 00:00:10;;;;;;;6.90;3.60;;;;;;;19.45;58.44;100498.80;108268;1266;57693;-53
2023/08/09 00:02:37;;;;;;;9.70;4.10;;;;;;;19.38;58.67;100498.18;106010;1264;65184;-54
2023/08/09 00:05:05;;;;;;;5.90;3.40;;;;;;;19.29;58.93;100509.02;104372;1269;60092;-53
2023/08/09 00:07:33;;;;;;;6.70;3.40;;;;;;;19.18;59.05;100509.59;105412;1263;63919;-53
2023/08/09 00:10:00;;;;;;;6.30;3.60;;;;;;;19.08;59.43;100510.88;104292;1260;59778;-53
2023/08/09 00:12:28;;;;;;;6.70;3.70;;;;;;;18.98;59.57;100506.20;104376;1263;59921;-52
2023/08/09 00:14:55;;;;;;;7.20;3.30;;;;;;;18.90;59.71;100504.91;104363;1261;63002;-52
2023/08/09 00:17:23;;;;;;;5.40;2.80;;;;;;;18.88;59.77;100504.42;104332;1260;61354;-50
2023/08/09 00:19:51;;;;;;;6.10;3.60;;;;;;;18.88;59.59;100507.28;104792;1266;62493;-51
2023/08/09 00:22:18;;;;;;;5.50;3.30;;;;;;;18.88;59.66;100506.52;104465;1262;59775;-54
2023/08/09 00:24:46;;;;;;;7.50;3.70;;;;;;;18.89;59.69;100510.16;105551;1260;59635;-55
2023/08/09 00:27:13;;;;;;;5.80;3.30;;;;;;;18.86;59.73;100511.59;104477;1260;64157;-54
2023/08/09 00:29:41;;;;;;;5.50;3.30;;;;;;;18.83;59.75;100511.77;104368;1260;61358;-54
2023/08/09 00:32:08;;;;;;;6.30;3.70;;;;;;;18.81;59.91;100513.83;104361;1261;62620;-55
2023/08/09 00:34:36;;;;;;;5.60;3.20;;;;;;;18.76;59.96;100518.58;104425;1260;59714;-54
2023/08/09 00:37:04;;;;;;;8.10;4.00;;;;;;;18.72;60.15;100520.71;104550;1260;59699;-54
2023/08/09 00:39:32;;;;;;;6.30;3.20;;;;;;;18.72;60.25;100520.98;105838;1263;62820;-54
2023/08/09 00:42:00;;;;;;;6.10;3.10;;;;;;;18.71;60.40;100521.22;104445;1266;60220;-54
2023/08/09 00:44:27;;;;;;;11.40;4.60;;;;;;;18.68;60.52;100518.37;104352;1261;72707;-54
2023/08/09 00:46:55;;;;;;;6.00;3.90;;;;;;;18.65;60.73;100523.34;104344;1262;62539;-56
2023/08/09 00:49:22;;;;;;;5.90;3.60;;;;;;;18.61;60.89;100527.68;105278;1265;59689;-55
2023/08/09 00:51:50;;;;;;;6.50;4.00;;;;;;;18.57;61.21;100530.23;104765;1263;64167;-59
2023/08/09 00:54:18;;;;;;;5.90;3.30;;;;;;;18.56;61.33;100528.94;104358;1261;61579;-59
2023/08/09 00:56:45;;;;;;;6.60;3.80;;;;;;;18.55;61.57;100530.30;104641;1264;63913;-59
2023/08/09 00:59:13;;;;;;;8.20;4.10;;;;;;;18.52;61.66;100534.50;104297;1264;59650;-59
2023/08/09 01:01:40;;;;;;;6.90;4.20;;;;;;;18.46;61.91;100533.42;104458;1260;59701;-59
2023/08/09 01:04:08;;;;;;;7.40;4.00;;;;;;;18.39;62.11;100536.84;104452;1260;64118;-60
2023/08/09 01:07:02;;;;;;;6.30;3.30;;;;;;;18.31;62.35;100543.58;104459;1260;61362;-58
2023/08/09 01:09:57;;;;;;;7.80;3.90;;;;;;;18.22;62.50;100543.36;104544;1264;63697;-59
2023/08/09 01:12:27;;;;;;;7.20;3.60;;;;;;;18.18;62.66;100548.57;105027;1261;59614;-59
2023/08/09 01:14:59;;;;;;;6.00;3.30;;;;;;;18.17;62.69;100552.23;105686;1260;59726;-59
2023/08/09 01:17:31;;;;;;;9.50;4.20;;;;;;;18.17;62.82;100551.66;104360;1266;64156;-63
2023/08/09 01:19:59;;;;;;;6.60;3.70;;;;;;;18.16;62.98;100552.36;105156;1260;60102;-61
2023/08/09 01:22:31;;;;;;;6.60;4.20;;;;;;;18.11;62.90;100550.61;104734;1262;62744;-63
2023/08/09 01:25:03;;;;;;;6.20;3.80;;;;;;;18.07;62.97;100552.50;104658;1256;59762;-62
2023/08/09 01:27:31;;;;;;;7.10;3.80;;;;;;;18.04;63.04;100554.90;104976;1257;59825;-63
2023/08/09 01:29:59;;;;;;;7.20;3.70;;;;;;;18.09;62.94;100555.13;104820;1255;62820;-60
2023/08/09 01:32:28;;;;;;;6.40;3.80;;;;;;;18.11;62.80;100556.05;104801;1257;60596;-60
2023/08/09 01:34:56;;;;;;;7.00;3.80;;;;;;;18.13;62.85;100556.73;104936;1259;62486;-61
2023/08/09 01:37:34;;;;;;;6.70;4.20;;;;;;;18.11;62.80;100560.70;104757;1257;60265;-61
2023/08/09 01:40:08;;;;;;;5.80;3.80;;;;;;;18.04;62.95;100560.46;104800;1257;60811;-60
2023/08/09 01:42:36;;;;;;;7.40;4.50;;;;;;;17.97;63.02;100561.36;104992;1256;62813;-61
2023/08/09 01:45:05;;;;;;;6.50;3.10;;;;;;;17.92;63.23;100562.09;105943;1260;60376;-62
2023/08/09 01:47:32;;;;;;;7.40;3.80;;;;;;;17.91;63.23;100562.20;104827;1257;63867;-63
2023/08/09 01:50:00;;;;;;;6.40;3.60;;;;;;;17.93;63.24;100564.80;105024;1256;59858;-63
2023/08/09 01:52:28;;;;;;;6.00;3.70;;;;;;;17.94;63.49;100566.63;104801;1256;59633;-63
2023/08/09 01:54:55;;;;;;;5.60;3.50;;;;;;;17.94;63.53;100569.52;105991;1262;66720;-63
2023/08/09 01:57:23;;;;;;;6.40;3.60;;;;;;;17.90;63.56;100569.91;104770;1260;61468;-63
2023/08/09 01:59:50;;;;;;;8.40;4.30;;;;;;;17.84;63.51;100569.46;104757;1257;63729;-64
2023/08/09 02:02:18;;;;;;;8.50;4.00;;;;;;;17.80;63.64;100568.86;104675;1257;61659;-61
2023/08/09 02:04:46;;;;;;;5.80;3.80;;;;;;;17.77;63.58;100571.14;105056;1259;60676;-63
2023/08/09 02:07:13;;;;;;;8.00;4.00;;;;;;;17.75;63.66;100572.20;104724;1254;65483;-63
2023/08/09 02:09:43;;;;;;;7.60;4.10;;;;;;;17.75;63.72;100574.17;104995;1255;61933;-63
2023/08/09 02:12:11;;;;;;;6.40;3.40;;;;;;;17.76;63.77;100577.30;105540;1259;62507;-63
2023/08/09 02:14:40;;;;;;;7.10;3.50;;;;;;;17.76;63.95;100580.09;104766;1254;60668;-62
2023/08/09 02:17:09;;;;;;;8.00;4.10;;;;;;;17.74;63.93;100583.89;105279;1254;60582;-61
2023/08/09 02:19:37;;;;;;;7.20;4.00;;;;;;;17.69;64.09;100585.70;104819;1254;63734;-59
2023/08/09 02:22:04;;;;;;;5.50;3.60;;;;;;;17.62;64.28;100588.82;104806;1254;61461;-59
2023/08/09 02:24:32;;;;;;;7.10;4.20;;;;;;;17.56;64.42;100594.96;104948;1254;64237;-58
2023/08/09 02:27:00;;;;;;;5.70;3.80;;;;;;;17.53;64.52;100596.58;104731;1257;60559;-59
2023/08/09 02:29:28;;;;;;;6.40;3.60;;;;;;;17.51;64.43;100594.81;104968;1260;60470;-59
2023/08/09 02:31:55;;;;;;;8.30;4.20;;;;;;;17.51;64.54;100599.81;104801;1254;64981;-58
2023/08/09 02:34:23;;;;;;;8.20;3.80;;;;;;;17.51;64.67;100599.95;104902;1260;62022;-59
2023/08/09 02:36:51;;;;;;;7.40;4.00;;;;;;;17.49;64.76;100600.34;105276;1254;64238;-58
2023/08/09 02:39:19;;;;;;;6.80;4.50;;;;;;;17.46;64.89;100605.16;104908;1259;61520;-58
2023/08/09 02:41:48;;;;;;;7.00;4.10;;;;;;;17.41;65.09;100604.77;104929;1260;60654;-58
2023/08/09 02:44:16;;;;;;;9.20;4.10;;;;;;;17.38;65.18;100604.77;104808;1254;63837;-59
2023/08/09 02:46:44;;;;;;;8.30;4.40;;;;;;;17.36;65.21;100607.23;104722;1253;60600;-59
2023/08/09 02:49:11;;;;;;;10.10;4.50;;;;;;;17.33;65.31;100613.73;104707;1255;64773;-60
2023/08/09 02:51:39;;;;;;;7.90;4.20;;;;;;;17.31;65.34;100619.27;105335;1251;60495;-60
2023/08/09 02:54:06;;;;;;;6.80;4.10;;;;;;;17.28;65.51;100623.30;105186;1256;60438;-59
2023/08/09 02:56:34;;;;;;;8.60;4.70;;;;;;;17.23;65.57;100625.35;105025;1256;65693;-58
2023/08/09 02:59:02;;;;;;;7.30;4.40;;;;;;;17.21;65.72;100628.20;105841;1251;61500;-57
2023/08/09 03:01:30;;;;;;;8.90;4.40;;;;;;;17.23;65.92;100637.39;105049;1254;63724;-58
2023/08/09 03:03:58;;;;;;;7.90;4.40;;;;;;;17.24;65.91;100636.43;105016;1254;60467;-59
2023/08/09 03:06:26;;;;;;;9.80;4.30;;;;;;;17.24;66.01;100637.52;105643;1251;60511;-57
2023/08/09 03:08:54;;;;;;;7.00;4.20;;;;;;;17.22;65.92;100638.29;105350;1251;63675;-57
2023/08/09 03:11:24;;;;;;;10.20;4.70;;;;;;;17.17;66.14;100637.73;104987;1257;62499;-59
2023/08/09 03:13:53;;;;;;;6.30;4.20;;;;;;;17.15;65.97;100637.05;105045;1254;63803;-60
2023/08/09 03:16:21;;;;;;;8.10;4.30;;;;;;;17.15;65.87;100632.67;104915;1252;60489;-60
2023/08/09 03:18:49;;;;;;;8.50;4.70;;;;;;;17.15;65.76;100629.65;105110;1251;61180;-60
2023/08/09 03:21:17;;;;;;;10.10;5.00;;;;;;;17.15;65.79;100629.31;105065;1251;63663;-60
2023/08/09 03:23:45;;;;;;;7.90;5.10;;;;;;;17.14;65.91;100633.23;105416;1251;61454;-59
2023/08/09 03:26:13;;;;;;;8.00;4.70;;;;;;;17.15;65.98;100636.13;105240;1258;63699;-60
2023/08/09 03:28:42;;;;;;;10.40;5.00;;;;;;;17.20;65.93;100642.70;105128;1257;60463;-58
2023/08/09 03:31:11;;;;;;;8.40;4.70;;;;;;;17.28;65.77;100642.10;105020;1251;62210;-58
2023/08/09 03:33:39;;;;;;;7.10;4.70;;;;;;;17.34;65.72;100643.77;105134;1257;65057;-59
2023/08/09 03:36:07;;;;;;;7.10;4.10;;;;;;;17.37;65.69;100651.56;104951;1251;61324;-59
2023/08/09 03:38:34;;;;;;;8.80;4.90;;;;;;;17.40;65.70;100652.94;104849;1254;63732;-59
2023/08/09 03:41:02;;;;;;;7.90;4.40;;;;;;;17.41;65.72;100654.00;104966;1257;60485;-58
2023/08/09 03:43:30;;;;;;;8.20;5.10;;;;;;;17.46;65.57;100657.58;105096;1251;61128;-60
2023/08/09 03:45:58;;;;;;;6.10;3.90;;;;;;;17.53;65.35;100654.89;104991;1256;66493;-58
2023/08/09 03:48:26;;;;;;;6.40;4.40;;;;;;;17.62;65.20;100653.05;104982;1257;61341;-58
2023/08/09 03:50:54;;;;;;;6.80;4.50;;;;;;;17.69;65.06;100654.14;105079;1251;63999;-59
2023/08/09 03:53:21;;;;;;;7.00;4.70;;;;;;;17.73;65.02;100657.10;105107;1256;60562;-61
2023/08/09 03:55:49;;;;;;;6.90;4.50;;;;;;;17.76;64.98;100661.89;105101;1251;60364;-56
2023/08/09 03:58:16;;;;;;;6.50;4.00;;;;;;;17.79;64.85;100663.51;104780;1251;64864;-60
2023/08/09 04:00:44;;;;;;;7.10;4.10;;;;;;;17.86;64.48;100662.77;104973;1251;62333;-59
2023/08/09 04:03:12;;;;;;;6.90;4.60;;;;;;;17.92;64.29;100661.59;104644;1254;63741;-59
2023/08/09 04:05:39;;;;;;;7.90;4.60;;;;;;;17.96;64.14;100667.28;104888;1251;60453;-59
2023/08/09 04:08:07;;;;;;;9.20;4.90;;;;;;;17.95;64.07;100667.65;105088;1256;60364;-60
2023/08/09 04:10:36;;;;;;;6.90;4.20;;;;;;;17.95;64.07;100668.18;105894;1251;64914;-60
2023/08/09 04:13:03;;;;;;;9.00;4.60;;;;;;;17.97;64.03;100670.85;107124;1257;64688;-60
2023/08/09 04:15:31;;;;;;;7.10;4.50;;;;;;;18.00;64.04;100670.02;104936;1253;62673;-60
2023/08/09 04:17:58;;;;;;;8.70;4.50;;;;;;;18.06;63.81;100673.66;104927;1251;60513;-49
2023/08/09 04:20:26;;;;;;;9.70;5.00;;;;;;;18.13;63.63;100680.91;105446;1252;60621;-50
2023/08/09 04:23:00;;;;;;;7.30;4.80;;;;;;;18.20;63.66;100682.09;105101;1251;67391;-49
2023/08/09 04:25:27;;;;;;;7.30;4.60;;;;;;;18.26;63.47;100685.72;105912;1251;63637;-48
2023/08/09 04:27:56;;;;;;;7.70;4.80;;;;;;;18.28;63.20;100685.65;105030;1254;64305;-50
2023/08/09 04:30:24;;;;;;;7.90;4.90;;;;;;;18.31;63.44;100690.33;105332;1252;60579;-49
2023/08/09 04:32:55;;;;;;;6.60;4.50;;;;;;;18.33;63.09;100695.41;104911;1257;60380;-49
2023/08/09 04:35:23;;;;;;;6.80;3.90;;;;;;;18.37;62.71;100697.84;105181;1251;64959;-51
2023/08/09 04:37:50;;;;;;;7.90;4.10;;;;;;;18.41;62.66;100699.21;104838;1256;60322;-51
2023/08/09 04:40:18;;;;;;;6.40;4.10;;;;;;;18.44;62.54;100702.55;105054;1255;62502;-51
2023/08/09 04:42:47;;;;;;;8.40;4.50;;;;;;;18.45;62.57;100707.23;105540;1253;60334;-60
2023/08/09 04:45:15;;;;;;;8.70;4.50;;;;;;;18.47;62.66;100708.98;104785;1251;60402;-56
2023/08/09 04:47:43;;;;;;;7.20;4.20;;;;;;;18.51;62.71;100710.88;104924;1251;64958;-61
2023/08/09 04:50:12;;;;;;;8.20;5.10;;;;;;;18.55;62.75;100708.50;105175;1251;61437;-62
2023/08/09 04:52:41;;;;;;;8.70;4.60;;;;;;;18.64;62.63;100707.36;105116;1257;73072;-62
2023/08/09 04:55:11;;;;;;;7.40;4.20;;;;;;;18.75;62.45;100709.19;105021;1254;60534;-60
2023/08/09 04:57:38;;;;;;;10.80;4.60;;;;;;;18.85;61.88;100707.61;105145;1251;61667;-59
2023/08/09 05:00:13;;;;;;;7.30;4.80;;;;;;;18.93;61.52;100711.80;105034;1251;76393;-65
2023/08/09 05:02:40;;;;;;;9.00;4.70;;;;;;;19.01;61.31;100707.41;105212;1257;61125;-61
2023/08/09 05:05:09;;;;;;;7.50;4.60;;;;;;;19.07;60.92;100707.77;105075;1251;65670;-60
2023/08/09 05:07:39;;;;;;;9.90;4.50;;;;;;;19.09;60.55;100706.09;106829;1253;60899;-63
2023/08/09 05:10:08;;;;;;;10.40;4.50;;;;;;;19.12;60.55;100704.63;105253;1255;60347;-63
2023/08/09 05:12:36;;;;;;;8.10;4.80;;;;;;;19.20;60.47;100707.95;105043;1257;65048;-63
2023/08/09 05:15:04;;;;;;;6.00;4.10;;;;;;;19.32;60.37;100716.06;105040;1256;63883;-61
2023/08/09 05:17:31;;;;;;;6.80;4.10;;;;;;;19.41;59.68;100720.16;104996;1256;63782;-59
2023/08/09 05:19:59;;;;;;;6.50;3.90;;;;;;;19.47;59.00;100722.01;105769;1256;60307;-61
2023/08/09 05:22:27;;;;;;;8.00;4.40;;;;;;;19.55;58.96;100720.41;105116;1254;60425;-61
2023/08/09 05:24:55;;;;;;;7.80;4.20;;;;;;;19.63;58.90;100718.60;106579;1253;64852;-61
2023/08/09 05:27:22;;;;;;;9.30;3.90;;;;;;;19.72;58.54;100720.01;104450;1255;62307;-62
2023/08/09 05:29:50;;;;;;;7.60;4.20;;;;;;;19.83;58.17;100720.31;104400;1254;62503;-64
2023/08/09 05:32:17;;;;;;;6.20;3.40;;;;;;;19.96;57.67;100724.71;104469;1257;60451;-61
2023/08/09 05:34:45;;;;;;;7.40;3.70;;;;;;;20.07;57.39;100724.02;104631;1250;60558;-62
2023/08/09 05:37:12;;;;;;;7.70;4.20;;;;;;;20.14;57.13;100721.25;104473;1257;65375;-61
2023/08/09 05:39:40;;;;;;;9.10;4.00;;;;;;;20.19;56.95;100723.29;106068;1256;62001;-64
2023/08/09 05:42:08;;;;;;;7.00;4.60;;;;;;;20.25;56.63;100727.26;104920;1251;66071;-65
2023/08/09 05:44:35;;;;;;;6.30;3.80;;;;;;;20.31;56.45;100728.39;104906;1251;63366;-64
2023/08/09 05:47:03;;;;;;;6.60;4.10;;;;;;;20.37;56.31;100731.79;105031;1256;60416;-66
2023/08/09 05:49:31;;;;;;;6.00;3.90;;;;;;;20.44;56.14;100731.90;105114;1252;64908;-61
2023/08/09 05:51:59;;;;;;;9.20;4.10;;;;;;;20.53;55.61;100734.89;105037;1251;61419;-66
2023/08/09 05:54:27;;;;;;;6.40;3.20;;;;;;;20.63;54.73;100739.08;105154;1254;63705;-63
2023/08/09 05:56:57;;;;;;;8.60;3.50;;;;;;;20.73;54.08;100737.73;105099;1253;60607;-60
2023/08/09 05:59:26;;;;;;;7.00;3.60;;;;;;;20.81;54.02;100736.23;105015;1251;60550;-60
2023/08/09 06:01:53;;;;;;;9.80;3.40;;;;;;;20.88;53.38;100738.27;104845;1251;63647;-71
2023/08/09 06:04:24;;;;;;;8.30;3.90;;;;;;;20.94;52.67;100735.64;105641;1256;60457;-60
2023/08/09 06:06:52;;;;;;;8.60;3.60;;;;;;;20.98;52.21;100733.97;108575;1255;63845;-61
2023/08/09 06:09:20;;;;;;;6.60;3.50;;;;;;;21.02;52.44;100736.00;105058;1251;60469;-56
2023/08/09 06:12:05;;;;;;;11.30;3.80;;;;;;;21.07;52.82;100737.67;104958;1256;60670;-57
2023/08/09 06:14:33;;;;;;;8.00;3.50;;;;;;;21.11;52.91;100737.37;105070;1256;65010;-56
2023/08/09 06:17:00;;;;;;;9.10;3.60;;;;;;;21.15;52.82;100740.30;104778;1255;62480;-59
2023/08/09 06:19:28;;;;;;;8.40;3.70;;;;;;;21.18;52.22;100743.85;105236;1252;63720;-58
2023/08/09 06:21:56;;;;;;;6.80;3.30;;;;;;;21.19;51.60;100742.59;104946;1256;60468;-55
2023/08/09 06:24:23;;;;;;;6.50;3.50;;;;;;;21.22;51.50;100743.21;105115;1256;60588;-59
2023/08/09 06:26:51;;;;;;;6.90;3.30;;;;;;;21.24;51.23;100742.63;104975;1251;66274;-58
2023/08/09 06:29:19;;;;;;;10.80;3.80;;;;;;;21.25;51.08;100743.88;105094;1257;60294;-56
2023/08/09 06:31:47;;;;;;;6.60;3.10;;;;;;;21.27;50.69;100744.23;105002;1251;62856;-54
2023/08/09 06:34:14;;;;;;;7.20;3.40;;;;;;;21.30;50.73;100742.34;104943;1252;60519;-54
2023/08/09 06:36:42;;;;;;;8.70;3.30;;;;;;;21.35;50.69;100743.40;105361;1251;60776;-54
2023/08/09 06:39:09;;;;;;;5.80;3.00;;;;;;;21.39;49.30;100744.35;105215;1252;64905;-54
2023/08/09 06:41:37;;;;;;;5.50;2.70;;;;;;;21.40;49.25;100743.03;105057;1251;61314;-54
2023/08/09 06:44:05;;;;;;;8.80;2.90;;;;;;;21.44;48.59;100743.80;105174;1252;64630;-55
2023/08/09 06:46:33;;;;;;;6.50;2.60;;;;;;;21.47;47.60;100742.86;105101;1251;60446;-56
2023/08/09 06:49:01;;;;;;;6.10;2.60;;;;;;;21.48;47.36;100742.02;105438;1251;60470;-55
2023/08/09 06:51:29;;;;;;;7.10;2.40;;;;;;;21.48;47.20;100741.86;104982;1256;65519;-56
2023/08/09 06:53:56;;;;;;;8.00;3.50;;;;;;;21.52;47.07;100743.20;105359;1256;60436;-58
2023/08/09 06:56:24;;;;;;;5.70;2.60;;;;;;;21.60;46.62;100742.77;104959;1255;64717;-57
2023/08/09 06:58:51;;;;;;;5.20;2.50;;;;;;;21.65;45.84;100739.08;105109;1251;60416;-57
2023/08/09 07:01:19;;;;;;;8.80;3.00;;;;;;;21.66;45.62;100739.45;105358;1251;60480;-58
2023/08/09 07:03:50;;;;;;;10.60;2.80;;;;;;;21.68;45.94;100742.48;105964;1251;64951;-57
2023/08/09 07:18:53;;;;;;;6.30;2.90;;;;;;;21.94;46.00;100743.42;103180;1283;604849;-59
2023/08/09 07:21:27;;;;;;;6.90;2.60;;;;;;;22.46;44.20;100743.67;105346;1263;114617;-59
2023/08/09 07:23:55;;;;;;;4.50;2.30;;;;;;;22.48;43.88;100743.98;108860;1254;59955;-58
2023/08/09 07:26:26;;;;;;;8.90;2.50;;;;;;;22.50;43.80;100742.89;108966;1257;63507;-58
2023/08/09 07:28:54;;;;;;;9.20;2.00;;;;;;;22.51;43.98;100741.17;108828;1254;61326;-58
2023/08/09 07:31:22;;;;;;;5.40;2.30;;;;;;;22.54;44.35;100743.02;108815;1254;64476;-58
2023/08/09 07:33:49;;;;;;;5.00;2.10;;;;;;;22.59;44.01;100737.98;108902;1254;57247;-57
2023/08/09 07:36:18;;;;;;;5.10;2.40;;;;;;;22.65;43.92;100741.98;105298;1257;59367;-59
2023/08/09 07:38:46;;;;;;;6.00;2.90;;;;;;;22.68;43.60;100742.55;105418;1255;63329;-63
2023/08/09 07:41:13;;;;;;;5.30;2.50;;;;;;;22.68;43.47;100743.59;105125;1257;61514;-58
2023/08/09 07:43:41;;;;;;;5.30;2.60;;;;;;;22.71;44.04;100745.34;105141;1258;63670;-58
2023/08/09 07:46:09;;;;;;;7.40;2.90;;;;;;;22.73;43.20;100748.33;105146;1255;59668;-59
2023/08/09 07:48:37;;;;;;;7.90;3.10;;;;;;;22.73;43.17;100747.21;105244;1257;59689;-59
2023/08/09 07:51:06;;;;;;;6.40;2.90;;;;;;;22.75;43.05;100746.74;104838;1256;64130;-60
2023/08/09 07:53:33;;;;;;;6.50;3.20;;;;;;;22.79;43.41;100745.91;105724;1260;60380;-58
2023/08/09 07:56:01;;;;;;;11.00;3.20;;;;;;;22.84;43.34;100750.68;105258;1255;63788;-58
2023/08/09 07:58:29;;;;;;;8.80;2.90;;;;;;;22.85;42.98;100753.75;104921;1257;60525;-60
2023/08/09 08:00:56;;;;;;;5.50;2.40;;;;;;;22.88;43.36;100749.19;105026;1254;60341;-60
2023/08/09 08:03:24;;;;;;;7.20;2.60;;;;;;;22.91;42.96;100749.21;105125;1260;64172;-59
2023/08/09 08:05:51;;;;;;;7.10;2.70;;;;;;;22.94;43.01;100752.33;105004;1255;61374;-60
2023/08/09 08:08:19;;;;;;;7.30;2.00;;;;;;;22.97;43.18;100749.91;104922;1258;65687;-59
2023/08/09 08:10:47;;;;;;;5.60;1.80;;;;;;;23.01;41.54;100743.73;104904;1258;59772;-61
2023/08/09 08:13:15;;;;;;;5.90;2.00;;;;;;;23.05;41.31;100743.54;105094;1260;59640;-61
2023/08/09 08:15:42;;;;;;;7.00;2.70;;;;;;;23.13;41.36;100748.37;105161;1254;64080;-59
2023/08/09 08:18:11;;;;;;;6.50;2.60;;;;;;;23.16;41.06;100749.50;104974;1257;61539;-59
2023/08/09 08:20:38;;;;;;;5.80;2.80;;;;;;;23.18;41.49;100749.06;105045;1257;64340;-59
2023/08/09 08:23:06;;;;;;;6.30;2.60;;;;;;;23.22;41.31;100751.67;105169;1258;60674;-59
2023/08/09 08:25:33;;;;;;;4.80;2.20;;;;;;;23.24;39.76;100749.91;105112;1260;60470;-59
2023/08/09 08:28:01;;;;;;;6.10;2.40;;;;;;;23.28;38.53;100751.75;105087;1257;63058;-60
2023/08/09 08:30:29;;;;;;;7.60;2.60;;;;;;;23.32;38.42;100752.81;105069;1260;60482;-58
2023/08/09 08:32:56;;;;;;;6.20;2.20;;;;;;;23.38;38.17;100748.92;105002;1257;63735;-59
2023/08/09 08:35:33;;;;;;;6.60;2.40;;;;;;;23.44;38.35;100746.34;104889;1256;59544;-55
2023/08/09 08:38:01;;;;;;;5.10;2.20;;;;;;;23.50;38.77;100748.73;105164;1261;59800;-56
2023/08/09 08:40:31;;;;;;;6.00;2.30;;;;;;;23.55;38.78;100747.48;105165;1257;64147;-55
2023/08/09 08:42:59;;;;;;;4.80;2.30;;;;;;;23.57;38.62;100750.51;104945;1260;60274;-56
2023/08/09 08:45:26;;;;;;;13.30;2.70;;;;;;;23.57;39.00;100749.63;104972;1257;63752;-56
2023/08/09 08:47:54;;;;;;;4.70;2.30;;;;;;;23.62;38.85;100751.77;104838;1257;59719;-55
2023/08/09 08:50:25;;;;;;;6.40;2.40;;;;;;;23.69;38.42;100753.20;104864;1257;59679;-55
2023/08/09 08:52:52;;;;;;;7.70;2.10;;;;;;;23.78;37.63;100753.20;104736;1257;64007;-56
2023/08/09 08:55:20;;;;;;;4.90;1.80;;;;;;;23.83;36.79;100753.64;104702;1258;61361;-56
2023/08/09 08:57:47;;;;;;;6.40;2.40;;;;;;;23.86;37.27;100755.02;104904;1261;62445;-57
2023/08/09 09:00:16;;;;;;;5.60;2.20;;;;;;;23.88;37.22;100755.37;108873;1258;58468;-56
2023/08/09 09:02:47;;;;;;;4.50;1.90;;;;;;;23.93;36.83;100749.63;108897;1260;57424;-57
2023/08/09 09:05:16;;;;;;;4.10;1.80;;;;;;;23.98;36.27;100755.40;105881;1258;64129;-56
2023/08/09 09:07:45;;;;;;;4.90;2.10;;;;;;;24.05;36.41;100753.23;105325;1254;63678;-56
2023/08/09 09:10:13;;;;;;;5.60;1.80;;;;;;;24.14;35.84;100757.84;105160;1258;63705;-54
2023/08/09 09:12:41;;;;;;;6.50;2.20;;;;;;;24.21;36.36;100755.61;104975;1257;59813;-56
2023/08/09 09:15:09;;;;;;;5.20;1.80;;;;;;;24.31;36.27;100753.45;105205;1260;59652;-55
2023/08/09 09:17:41;;;;;;;5.00;2.10;;;;;;;24.41;35.84;100760.83;105018;1260;64310;-55
2023/08/09 09:20:29;;;;;;;6.20;2.30;;;;;;;24.51;35.66;100763.70;105193;1260;61555;-56
2023/08/09 09:22:59;;;;;;;4.30;1.80;;;;;;;24.58;35.08;100762.53;105567;1258;63770;-56
2023/08/09 09:25:27;;;;;;;4.70;1.80;;;;;;;24.64;34.40;100764.55;105284;1255;59787;-54
2023/08/09 09:27:56;;;;;;;5.30;1.90;;;;;;;24.70;33.84;100763.02;105105;1260;59554;-56
2023/08/09 09:30:24;;;;;;;4.20;1.70;;;;;;;24.73;33.49;100762.32;105307;1260;63042;-57
2023/08/09 09:33:02;;;;;;;5.00;1.70;;;;;;;24.78;33.92;100762.27;106926;1258;61361;-56
2023/08/09 09:35:31;;;;;;;5.80;1.90;;;;;;;24.84;33.60;100761.58;105287;1258;62501;-56
2023/08/09 09:37:59;;;;;;;4.80;1.80;;;;;;;24.90;33.71;100762.02;104955;1260;59685;-57
2023/08/09 09:40:32;;;;;;;3.50;1.60;;;;;;;24.95;33.59;100756.85;105035;1263;59727;-55
2023/08/09 09:43:04;;;;;;;7.20;2.00;;;;;;;25.02;32.68;100756.30;105104;1258;64049;-53
2023/08/09 09:45:32;;;;;;;5.10;1.90;;;;;;;25.04;32.57;100756.01;105409;1258;63444;-57
2023/08/09 09:48:02;;;;;;;6.10;1.80;;;;;;;25.05;32.99;100754.06;105163;1262;63925;-56
2023/08/09 09:50:31;;;;;;;6.20;1.80;;;;;;;25.05;32.58;100751.54;105419;1257;59638;-54
2023/08/09 09:52:59;;;;;;;4.20;1.90;;;;;;;25.03;32.75;100748.75;105276;1260;59544;-55
2023/08/09 09:55:28;;;;;;;4.30;1.80;;;;;;;25.03;32.47;100751.41;105320;1256;64136;-55
2023/08/09 09:57:57;;;;;;;5.70;1.90;;;;;;;25.07;33.20;100750.04;105369;1260;61524;-53
2023/08/09 10:00:27;;;;;;;4.60;2.20;;;;;;;25.19;33.67;100750.27;105124;1263;63765;-56
2023/08/09 10:02:55;;;;;;;7.60;2.10;;;;;;;25.32;32.79;100744.13;105354;1263;59777;-59
2023/08/09 10:05:26;;;;;;;7.20;1.90;;;;;;;25.44;33.05;100740.31;106363;1261;59555;-58
2023/08/09 10:07:55;;;;;;;5.50;2.10;;;;;;;25.58;33.25;100739.61;105322;1260;64053;-59
2023/08/09 10:10:26;;;;;;;5.10;2.10;;;;;;;25.69;32.29;100742.30;108813;1257;63639;-59
2023/08/09 10:12:54;;;;;;;7.30;1.80;;;;;;;25.73;32.29;100741.74;108679;1261;63735;-60
2023/08/09 10:15:32;;;;;;;5.30;2.10;;;;;;;25.80;32.83;100738.27;108974;1260;57357;-59
2023/08/09 10:18:10;;;;;;;8.20;1.90;;;;;;;25.86;32.66;100737.08;108804;1258;57952;-62
2023/08/09 10:20:44;;;;;;;4.60;1.80;;;;;;;25.88;32.61;100734.00;108026;1263;62821;-57
2023/08/09 10:23:23;;;;;;;5.60;1.60;;;;;;;25.90;32.36;100733.99;105335;1256;60150;-60
2023/08/09 10:25:51;;;;;;;5.80;1.90;;;;;;;25.91;33.05;100738.59;105069;1257;63734;-60
2023/08/09 10:28:19;;;;;;;4.80;2.00;;;;;;;25.89;32.74;100740.54;104981;1260;59685;-61
2023/08/09 10:30:47;;;;;;;7.60;2.10;;;;;;;25.84;32.88;100736.25;104949;1263;59650;-58
2023/08/09 10:33:19;;;;;;;6.20;1.90;;;;;;;25.83;32.98;100738.75;105285;1260;62925;-62
2023/08/09 10:35:54;;;;;;;3.80;1.80;;;;;;;25.88;33.52;100739.96;105336;1264;61542;-62
2023/08/09 10:38:31;;;;;;;4.20;1.70;;;;;;;25.98;33.00;100737.41;104920;1260;63746;-62
2023/08/09 10:41:11;;;;;;;4.30;1.90;;;;;;;26.05;33.20;100735.30;105590;1257;59815;-63
2023/08/09 10:43:39;;;;;;;6.20;1.90;;;;;;;26.14;32.88;100734.41;105376;1256;59623;-60
2023/08/09 10:46:25;;;;;;;4.00;1.60;;;;;;;26.19;33.01;100734.75;105047;1260;64001;-60
2023/08/09 10:48:59;;;;;;;4.10;1.80;;;;;;;26.24;32.43;100728.63;105305;1259;60310;-56
2023/08/09 10:51:27;;;;;;;5.20;2.10;;;;;;;26.26;31.44;100731.06;105276;1260;63696;-59
2023/08/09 10:53:59;;;;;;;5.80;2.10;;;;;;;26.22;31.08;100733.02;105224;1256;59720;-51
2023/08/09 10:56:42;;;;;;;3.80;1.50;;;;;;;26.21;30.94;100726.28;105126;1260;59634;-54
2023/08/09 10:59:14;;;;;;;4.20;1.70;;;;;;;26.26;31.71;100724.21;105060;1262;64147;-54
2023/08/09 11:01:42;;;;;;;7.50;1.80;;;;;;;26.37;31.85;100729.77;109021;1254;64017;-51
2023/08/09 11:04:10;;;;;;;4.00;1.60;;;;;;;26.45;31.47;100728.44;108973;1254;63745;-45
2023/08/09 11:06:39;;;;;;;5.00;1.50;;;;;;;26.47;30.98;100726.76;108993;1254;57651;-45
2023/08/09 11:09:11;;;;;;;4.60;1.60;;;;;;;26.48;31.00;100725.80;109079;1254;57559;-51
2023/08/09 11:11:41;;;;;;;4.10;1.80;;;;;;;26.47;31.36;100729.33;109149;1259;64053;-52
2023/08/09 11:14:09;;;;;;;7.60;2.20;;;;;;;26.47;32.06;100725.38;109169;1254;61354;-50
2023/08/09 11:16:36;;;;;;;4.60;2.00;;;;;;;26.45;31.91;100728.67;109085;1254;62523;-51
2023/08/09 11:19:20;;;;;;;4.60;1.90;;;;;;;26.44;32.07;100724.41;109056;1256;57423;-53
2023/08/09 11:22:01;;;;;;;6.80;1.80;;;;;;;26.49;32.49;100722.41;106626;1257;59682;-54
2023/08/09 11:24:29;;;;;;;4.60;2.10;;;;;;;26.55;31.71;100717.92;105342;1260;64105;-54
2023/08/09 11:26:58;;;;;;;5.20;1.80;;;;;;;26.54;31.63;100718.27;105315;1260;61386;-49
2023/08/09 11:29:27;;;;;;;5.10;1.90;;;;;;;26.46;32.15;100724.22;105420;1259;63767;-52
2023/08/09 11:31:57;;;;;;;5.90;2.30;;;;;;;26.36;32.09;100725.02;105061;1255;61009;-51
2023/08/09 11:34:25;;;;;;;6.20;2.10;;;;;;;26.25;31.85;100725.25;109229;1258;58470;-56
2023/08/09 11:36:54;;;;;;;5.30;2.20;;;;;;;26.20;32.16;100721.63;108664;1259;63614;-55